Aérodrome :
LOGIN :

S'inscrire | Disclaimer

   EN    FR    IT 

 










Légende :    VFR   VFR Marginal   IFR   IFR Intensif   IFR Très Intensif
Visi : 
Plafond : 
>= 8 km
>= 3000ft
5 à 8 km
1000 à 3000 ft
1500m à 5 km
500 à 1000 ft
800 à 1500m
200 à 500 ft
< 800m
< 200 ft
Symboles :   Orages  Brouillard  Fortes neiges  Fortes précipitations  Vent > 20 kt
SIGMETs :   Divers  Orages  Givrage  Turbulence  Onde Orograph.  Cendres Volcan.






- Altitude de l'aérodrome : 181 ft


ESIB - Satenas AB

DERNIER METAR :
  • 251220Z 08021G31KT 9999 -SN FEW010 BKN012 BKN029 01/01 Q0985

METARs EXPIRÉS :
  • 251150Z 08021G31KT 9999 SCT012 BKN045 01/01 Q0985
  • 251120Z 08021KT 4000 SN FEW010 BKN023 00/M00 Q0986
  • 251050Z 08019KT 1200 R01/1400D R19/1800N SN VV012 00/00 Q0986
  • 251020Z 09018KT 1600 SN FEW008 BKN014 01/01 Q0986
  • 250950Z 08017KT 2000 SN FEW010 BKN013 OVC020 01/01 Q0987

TAF TAF ESIB
Valide du 25 à 12h jusqu'au 25 à 16h UTC


251100Z 2512/2516 07020G30KT 9999 -SNRA BKN020
TEMPO 2512/2516 1000 SN VV005 RMK MIL



MET'MAP, la Météo Aéronautique d'un coup d'oeil ! - Copyright ORBIFLY Décembre 2007 - Disclaimer

ORBIFLY MET'MAP TEAM :

Programmation & Développement : Alexandra Zaïnal
Sur une idée originale de : Baudouin d'Aumeries
Assistance à la programmation : Marc-Olivier Méhu
Soutien technique & logistique : Manuel Goepfert

Contact : metmap@orbifly.com




SOURCES & CREDITS :

   NOAA